sensor_id;sensor_type;location;lat;lon;timestamp;P1;durP1;ratioP1;P2;durP2;ratioP2
39958;SDS011;25639;53.634;9.880;2023-06-19T00:02:10;10.02;;;5.65;;
39958;SDS011;25639;53.634;9.880;2023-06-19T00:04:35;10.02;;;5.35;;
39958;SDS011;25639;53.634;9.880;2023-06-19T00:07:01;6.45;;;5.53;;
39958;SDS011;25639;53.634;9.880;2023-06-19T00:09:26;7.05;;;5.30;;
39958;SDS011;25639;53.634;9.880;2023-06-19T00:11:52;9.27;;;6.00;;
39958;SDS011;25639;53.634;9.880;2023-06-19T00:14:17;10.20;;;5.93;;
39958;SDS011;25639;53.634;9.880;2023-06-19T00:16:43;8.90;;;5.35;;
39958;SDS011;25639;53.634;9.880;2023-06-19T00:19:08;9.23;;;5.55;;
39958;SDS011;25639;53.634;9.880;2023-06-19T00:21:34;6.97;;;5.53;;
39958;SDS011;25639;53.634;9.880;2023-06-19T00:24:00;8.30;;;5.30;;
39958;SDS011;25639;53.634;9.880;2023-06-19T00:26:25;13.35;;;5.60;;
39958;SDS011;25639;53.634;9.880;2023-06-19T00:28:51;6.32;;;5.63;;
39958;SDS011;25639;53.634;9.880;2023-06-19T00:31:17;11.02;;;5.68;;
39958;SDS011;25639;53.634;9.880;2023-06-19T00:33:43;9.05;;;5.90;;
39958;SDS011;25639;53.634;9.880;2023-06-19T00:36:10;9.98;;;6.00;;
39958;SDS011;25639;53.634;9.880;2023-06-19T00:38:37;7.40;;;5.95;;
39958;SDS011;25639;53.634;9.880;2023-06-19T00:41:03;8.13;;;5.97;;
39958;SDS011;25639;53.634;9.880;2023-06-19T00:43:28;9.02;;;5.55;;
39958;SDS011;25639;53.634;9.880;2023-06-19T00:45:55;7.60;;;6.03;;
39958;SDS011;25639;53.634;9.880;2023-06-19T00:48:21;8.48;;;6.00;;
39958;SDS011;25639;53.634;9.880;2023-06-19T00:50:46;8.73;;;5.72;;
39958;SDS011;25639;53.634;9.880;2023-06-19T00:53:12;9.13;;;5.93;;
39958;SDS011;25639;53.634;9.880;2023-06-19T00:55:38;11.00;;;6.30;;
39958;SDS011;25639;53.634;9.880;2023-06-19T00:58:03;7.90;;;6.10;;
39958;SDS011;25639;53.634;9.880;2023-06-19T01:00:29;8.40;;;5.80;;
39958;SDS011;25639;53.634;9.880;2023-06-19T01:02:54;7.80;;;6.05;;
39958;SDS011;25639;53.634;9.880;2023-06-19T01:05:19;8.98;;;6.03;;
39958;SDS011;25639;53.634;9.880;2023-06-19T01:10:24;10.77;;;6.38;;
39958;SDS011;25639;53.634;9.880;2023-06-19T01:12:58;8.77;;;5.90;;
39958;SDS011;25639;53.634;9.880;2023-06-19T01:15:27;9.60;;;5.82;;
39958;SDS011;25639;53.634;9.880;2023-06-19T01:17:54;9.15;;;5.65;;
39958;SDS011;25639;53.634;9.880;2023-06-19T01:20:22;7.55;;;5.93;;
39958;SDS011;25639;53.634;9.880;2023-06-19T01:22:48;7.15;;;6.20;;
39958;SDS011;25639;53.634;9.880;2023-06-19T01:25:13;7.82;;;6.13;;
39958;SDS011;25639;53.634;9.880;2023-06-19T01:27:39;8.13;;;6.47;;
39958;SDS011;25639;53.634;9.880;2023-06-19T01:30:05;7.43;;;5.45;;
39958;SDS011;25639;53.634;9.880;2023-06-19T01:32:40;8.90;;;6.20;;
39958;SDS011;25639;53.634;9.880;2023-06-19T01:35:19;9.75;;;6.68;;
39958;SDS011;25639;53.634;9.880;2023-06-19T01:37:47;10.35;;;5.80;;
39958;SDS011;25639;53.634;9.880;2023-06-19T01:40:15;7.95;;;5.57;;
39958;SDS011;25639;53.634;9.880;2023-06-19T01:42:42;8.52;;;6.00;;
39958;SDS011;25639;53.634;9.880;2023-06-19T01:45:08;7.20;;;5.47;;
39958;SDS011;25639;53.634;9.880;2023-06-19T01:47:34;10.93;;;6.50;;
39958;SDS011;25639;53.634;9.880;2023-06-19T01:50:00;8.50;;;6.05;;
39958;SDS011;25639;53.634;9.880;2023-06-19T01:52:25;8.27;;;6.03;;
39958;SDS011;25639;53.634;9.880;2023-06-19T01:54:51;8.73;;;6.57;;
39958;SDS011;25639;53.634;9.880;2023-06-19T01:57:16;6.90;;;5.68;;
39958;SDS011;25639;53.634;9.880;2023-06-19T01:59:42;11.75;;;6.60;;
39958;SDS011;25639;53.634;9.880;2023-06-19T02:02:07;10.70;;;6.57;;
39958;SDS011;25639;53.634;9.880;2023-06-19T02:04:32;8.23;;;6.65;;
39958;SDS011;25639;53.634;9.880;2023-06-19T02:06:58;6.90;;;6.05;;
39958;SDS011;25639;53.634;9.880;2023-06-19T02:09:24;8.73;;;6.03;;
39958;SDS011;25639;53.634;9.880;2023-06-19T02:11:49;9.63;;;6.63;;
39958;SDS011;25639;53.634;9.880;2023-06-19T02:14:14;8.68;;;6.70;;
39958;SDS011;25639;53.634;9.880;2023-06-19T02:16:40;7.07;;;5.95;;
39958;SDS011;25639;53.634;9.880;2023-06-19T02:19:09;8.02;;;6.55;;
39958;SDS011;25639;53.634;9.880;2023-06-19T02:21:35;8.98;;;6.97;;
39958;SDS011;25639;53.634;9.880;2023-06-19T02:24:01;11.20;;;6.60;;
39958;SDS011;25639;53.634;9.880;2023-06-19T02:26:26;10.75;;;6.75;;
39958;SDS011;25639;53.634;9.880;2023-06-19T02:28:54;9.73;;;6.80;;
39958;SDS011;25639;53.634;9.880;2023-06-19T02:31:20;11.20;;;7.15;;
39958;SDS011;25639;53.634;9.880;2023-06-19T02:33:45;8.45;;;6.90;;
39958;SDS011;25639;53.634;9.880;2023-06-19T02:36:11;8.77;;;6.60;;
39958;SDS011;25639;53.634;9.880;2023-06-19T02:38:36;9.48;;;7.00;;
39958;SDS011;25639;53.634;9.880;2023-06-19T02:41:01;9.02;;;7.22;;
39958;SDS011;25639;53.634;9.880;2023-06-19T02:43:26;9.10;;;6.93;;
39958;SDS011;25639;53.634;9.880;2023-06-19T02:45:52;15.20;;;7.15;;
39958;SDS011;25639;53.634;9.880;2023-06-19T02:48:17;9.95;;;7.10;;
39958;SDS011;25639;53.634;9.880;2023-06-19T02:50:42;10.25;;;7.20;;
39958;SDS011;25639;53.634;9.880;2023-06-19T02:53:08;9.57;;;7.40;;
39958;SDS011;25639;53.634;9.880;2023-06-19T02:55:33;8.95;;;6.90;;
39958;SDS011;25639;53.634;9.880;2023-06-19T02:57:59;11.07;;;7.80;;
39958;SDS011;25639;53.634;9.880;2023-06-19T03:00:24;12.80;;;7.40;;
39958;SDS011;25639;53.634;9.880;2023-06-19T03:02:52;10.90;;;7.50;;
39958;SDS011;25639;53.634;9.880;2023-06-19T03:05:18;8.25;;;6.70;;
39958;SDS011;25639;53.634;9.880;2023-06-19T03:07:43;10.57;;;7.45;;
39958;SDS011;25639;53.634;9.880;2023-06-19T03:10:09;7.15;;;6.45;;
39958;SDS011;25639;53.634;9.880;2023-06-19T03:12:34;8.63;;;6.85;;
39958;SDS011;25639;53.634;9.880;2023-06-19T03:14:59;10.73;;;7.30;;
39958;SDS011;25639;53.634;9.880;2023-06-19T03:17:25;9.82;;;7.47;;
39958;SDS011;25639;53.634;9.880;2023-06-19T03:19:50;10.07;;;7.28;;
39958;SDS011;25639;53.634;9.880;2023-06-19T03:22:16;12.10;;;7.70;;
39958;SDS011;25639;53.634;9.880;2023-06-19T03:24:41;11.45;;;6.88;;
39958;SDS011;25639;53.634;9.880;2023-06-19T03:27:06;10.80;;;7.45;;
39958;SDS011;25639;53.634;9.880;2023-06-19T03:29:31;9.45;;;7.20;;
39958;SDS011;25639;53.634;9.880;2023-06-19T03:31:57;8.80;;;7.43;;
39958;SDS011;25639;53.634;9.880;2023-06-19T03:34:22;9.27;;;7.25;;
39958;SDS011;25639;53.634;9.880;2023-06-19T03:36:47;8.13;;;7.22;;
39958;SDS011;25639;53.634;9.880;2023-06-19T03:39:13;9.10;;;7.38;;
39958;SDS011;25639;53.634;9.880;2023-06-19T03:41:39;8.93;;;7.65;;
39958;SDS011;25639;53.634;9.880;2023-06-19T03:44:04;11.65;;;7.57;;
39958;SDS011;25639;53.634;9.880;2023-06-19T03:46:29;9.10;;;7.35;;
39958;SDS011;25639;53.634;9.880;2023-06-19T03:48:54;9.77;;;7.75;;
39958;SDS011;25639;53.634;9.880;2023-06-19T03:51:20;10.50;;;7.78;;
39958;SDS011;25639;53.634;9.880;2023-06-19T03:53:45;8.90;;;7.50;;
39958;SDS011;25639;53.634;9.880;2023-06-19T03:56:10;8.35;;;7.40;;
39958;SDS011;25639;53.634;9.880;2023-06-19T03:58:36;10.95;;;7.50;;
39958;SDS011;25639;53.634;9.880;2023-06-19T04:01:01;11.80;;;7.55;;
39958;SDS011;25639;53.634;9.880;2023-06-19T04:03:26;9.95;;;7.70;;
39958;SDS011;25639;53.634;9.880;2023-06-19T04:05:52;10.88;;;7.32;;
39958;SDS011;25639;53.634;9.880;2023-06-19T04:08:17;8.68;;;7.20;;
39958;SDS011;25639;53.634;9.880;2023-06-19T04:10:42;9.35;;;7.70;;
39958;SDS011;25639;53.634;9.880;2023-06-19T04:13:08;10.95;;;8.45;;
39958;SDS011;25639;53.634;9.880;2023-06-19T04:15:33;9.60;;;7.70;;
39958;SDS011;25639;53.634;9.880;2023-06-19T04:18:00;9.07;;;7.60;;
39958;SDS011;25639;53.634;9.880;2023-06-19T04:20:26;9.50;;;7.72;;
39958;SDS011;25639;53.634;9.880;2023-06-19T04:22:52;10.23;;;7.50;;
39958;SDS011;25639;53.634;9.880;2023-06-19T04:25:17;10.45;;;7.88;;
39958;SDS011;25639;53.634;9.880;2023-06-19T04:27:43;10.82;;;8.02;;
39958;SDS011;25639;53.634;9.880;2023-06-19T04:30:09;12.15;;;8.27;;
39958;SDS011;25639;53.634;9.880;2023-06-19T04:32:36;12.13;;;8.02;;
39958;SDS011;25639;53.634;9.880;2023-06-19T04:35:02;13.07;;;7.47;;
39958;SDS011;25639;53.634;9.880;2023-06-19T04:37:27;13.98;;;8.30;;
39958;SDS011;25639;53.634;9.880;2023-06-19T04:39:52;10.10;;;7.88;;
39958;SDS011;25639;53.634;9.880;2023-06-19T04:42:18;11.60;;;8.30;;
39958;SDS011;25639;53.634;9.880;2023-06-19T04:44:46;8.85;;;7.95;;
39958;SDS011;25639;53.634;9.880;2023-06-19T04:47:11;11.00;;;8.23;;
39958;SDS011;25639;53.634;9.880;2023-06-19T04:49:37;11.15;;;8.32;;
39958;SDS011;25639;53.634;9.880;2023-06-19T04:52:02;10.95;;;7.60;;
39958;SDS011;25639;53.634;9.880;2023-06-19T04:54:28;10.25;;;8.18;;
39958;SDS011;25639;53.634;9.880;2023-06-19T04:56:53;10.32;;;8.55;;
39958;SDS011;25639;53.634;9.880;2023-06-19T04:59:19;10.85;;;8.65;;
39958;SDS011;25639;53.634;9.880;2023-06-19T05:01:44;12.07;;;8.30;;
39958;SDS011;25639;53.634;9.880;2023-06-19T05:04:10;10.90;;;8.52;;
39958;SDS011;25639;53.634;9.880;2023-06-19T05:06:38;11.90;;;8.20;;
39958;SDS011;25639;53.634;9.880;2023-06-19T05:09:03;12.65;;;8.18;;
39958;SDS011;25639;53.634;9.880;2023-06-19T05:11:29;12.43;;;7.95;;
39958;SDS011;25639;53.634;9.880;2023-06-19T05:13:54;11.75;;;8.57;;
39958;SDS011;25639;53.634;9.880;2023-06-19T05:16:19;9.80;;;7.93;;
39958;SDS011;25639;53.634;9.880;2023-06-19T05:18:45;11.27;;;8.05;;
39958;SDS011;25639;53.634;9.880;2023-06-19T05:21:11;9.85;;;8.30;;
39958;SDS011;25639;53.634;9.880;2023-06-19T05:23:36;12.00;;;8.05;;
39958;SDS011;25639;53.634;9.880;2023-06-19T05:26:03;11.73;;;8.40;;
39958;SDS011;25639;53.634;9.880;2023-06-19T05:28:28;11.35;;;8.80;;
39958;SDS011;25639;53.634;9.880;2023-06-19T05:30:54;12.38;;;8.40;;
39958;SDS011;25639;53.634;9.880;2023-06-19T05:33:19;10.70;;;8.35;;
39958;SDS011;25639;53.634;9.880;2023-06-19T05:35:44;14.35;;;8.38;;
39958;SDS011;25639;53.634;9.880;2023-06-19T05:38:16;12.30;;;8.57;;
39958;SDS011;25639;53.634;9.880;2023-06-19T05:40:41;10.13;;;8.30;;
39958;SDS011;25639;53.634;9.880;2023-06-19T05:43:07;12.20;;;8.25;;
39958;SDS011;25639;53.634;9.880;2023-06-19T05:45:32;9.60;;;8.50;;
39958;SDS011;25639;53.634;9.880;2023-06-19T05:47:57;14.02;;;8.70;;
39958;SDS011;25639;53.634;9.880;2023-06-19T05:50:22;12.35;;;8.63;;
39958;SDS011;25639;53.634;9.880;2023-06-19T05:52:48;12.90;;;8.18;;
39958;SDS011;25639;53.634;9.880;2023-06-19T05:55:13;11.05;;;8.30;;
39958;SDS011;25639;53.634;9.880;2023-06-19T05:57:38;14.52;;;8.88;;
39958;SDS011;25639;53.634;9.880;2023-06-19T06:00:04;18.90;;;8.95;;
39958;SDS011;25639;53.634;9.880;2023-06-19T06:02:30;12.32;;;8.98;;
39958;SDS011;25639;53.634;9.880;2023-06-19T06:04:56;13.20;;;8.57;;
39958;SDS011;25639;53.634;9.880;2023-06-19T06:07:21;15.95;;;9.43;;
39958;SDS011;25639;53.634;9.880;2023-06-19T06:09:47;17.48;;;9.40;;
39958;SDS011;25639;53.634;9.880;2023-06-19T06:12:12;18.95;;;8.82;;
39958;SDS011;25639;53.634;9.880;2023-06-19T06:14:37;10.20;;;8.80;;
39958;SDS011;25639;53.634;9.880;2023-06-19T06:17:02;15.80;;;8.77;;
39958;SDS011;25639;53.634;9.880;2023-06-19T06:19:30;11.63;;;8.90;;
39958;SDS011;25639;53.634;9.880;2023-06-19T06:21:55;12.80;;;8.68;;
39958;SDS011;25639;53.634;9.880;2023-06-19T06:24:20;10.40;;;8.85;;
39958;SDS011;25639;53.634;9.880;2023-06-19T06:26:46;13.00;;;9.02;;
39958;SDS011;25639;53.634;9.880;2023-06-19T06:29:11;12.85;;;9.35;;
39958;SDS011;25639;53.634;9.880;2023-06-19T06:31:39;14.18;;;10.23;;
39958;SDS011;25639;53.634;9.880;2023-06-19T06:34:06;16.90;;;9.90;;
39958;SDS011;25639;53.634;9.880;2023-06-19T06:36:31;10.77;;;9.55;;
39958;SDS011;25639;53.634;9.880;2023-06-19T06:38:57;15.35;;;9.75;;
39958;SDS011;25639;53.634;9.880;2023-06-19T06:41:22;14.65;;;10.50;;
39958;SDS011;25639;53.634;9.880;2023-06-19T06:43:47;14.38;;;10.27;;
39958;SDS011;25639;53.634;9.880;2023-06-19T06:46:12;16.52;;;11.15;;
39958;SDS011;25639;53.634;9.880;2023-06-19T06:48:39;18.08;;;10.10;;
39958;SDS011;25639;53.634;9.880;2023-06-19T06:51:04;18.05;;;10.20;;
39958;SDS011;25639;53.634;9.880;2023-06-19T06:53:30;16.48;;;10.02;;
39958;SDS011;25639;53.634;9.880;2023-06-19T06:55:58;14.73;;;10.18;;
39958;SDS011;25639;53.634;9.880;2023-06-19T06:58:27;14.40;;;9.82;;
39958;SDS011;25639;53.634;9.880;2023-06-19T07:00:53;18.92;;;11.10;;
39958;SDS011;25639;53.634;9.880;2023-06-19T07:03:21;17.98;;;10.70;;
39958;SDS011;25639;53.634;9.880;2023-06-19T07:05:50;16.05;;;10.32;;
39958;SDS011;25639;53.634;9.880;2023-06-19T07:08:15;24.75;;;11.00;;
39958;SDS011;25639;53.634;9.880;2023-06-19T07:10:40;18.27;;;10.80;;
39958;SDS011;25639;53.634;9.880;2023-06-19T07:13:06;15.15;;;10.93;;
39958;SDS011;25639;53.634;9.880;2023-06-19T07:15:31;14.60;;;10.65;;
39958;SDS011;25639;53.634;9.880;2023-06-19T07:17:56;17.55;;;10.38;;
39958;SDS011;25639;53.634;9.880;2023-06-19T07:20:22;15.85;;;10.48;;
39958;SDS011;25639;53.634;9.880;2023-06-19T07:22:47;18.48;;;10.38;;
39958;SDS011;25639;53.634;9.880;2023-06-19T07:25:15;12.85;;;10.05;;
39958;SDS011;25639;53.634;9.880;2023-06-19T07:27:41;16.60;;;11.15;;
39958;SDS011;25639;53.634;9.880;2023-06-19T07:30:06;13.48;;;10.18;;
39958;SDS011;25639;53.634;9.880;2023-06-19T07:32:32;15.13;;;9.95;;
39958;SDS011;25639;53.634;9.880;2023-06-19T07:34:57;15.98;;;10.13;;
39958;SDS011;25639;53.634;9.880;2023-06-19T07:37:23;15.07;;;9.85;;
39958;SDS011;25639;53.634;9.880;2023-06-19T07:39:49;14.85;;;10.63;;
39958;SDS011;25639;53.634;9.880;2023-06-19T07:42:15;15.32;;;10.48;;
39958;SDS011;25639;53.634;9.880;2023-06-19T07:44:42;16.60;;;10.70;;
39958;SDS011;25639;53.634;9.880;2023-06-19T07:47:08;15.65;;;10.80;;
39958;SDS011;25639;53.634;9.880;2023-06-19T07:49:34;16.10;;;10.82;;
39958;SDS011;25639;53.634;9.880;2023-06-19T07:52:00;15.13;;;10.43;;
39958;SDS011;25639;53.634;9.880;2023-06-19T07:54:25;21.77;;;10.85;;
39958;SDS011;25639;53.634;9.880;2023-06-19T07:56:51;15.05;;;11.00;;
39958;SDS011;25639;53.634;9.880;2023-06-19T07:59:16;14.98;;;10.88;;
39958;SDS011;25639;53.634;9.880;2023-06-19T08:01:42;13.95;;;10.40;;
39958;SDS011;25639;53.634;9.880;2023-06-19T08:04:07;15.50;;;10.93;;
39958;SDS011;25639;53.634;9.880;2023-06-19T08:06:33;20.58;;;11.20;;
39958;SDS011;25639;53.634;9.880;2023-06-19T08:08:58;18.90;;;11.07;;
39958;SDS011;25639;53.634;9.880;2023-06-19T08:11:23;15.45;;;10.55;;
39958;SDS011;25639;53.634;9.880;2023-06-19T08:13:49;15.50;;;11.02;;
39958;SDS011;25639;53.634;9.880;2023-06-19T08:16:14;14.65;;;10.27;;
39958;SDS011;25639;53.634;9.880;2023-06-19T08:18:39;16.60;;;9.88;;
39958;SDS011;25639;53.634;9.880;2023-06-19T08:21:05;20.17;;;10.45;;
39958;SDS011;25639;53.634;9.880;2023-06-19T08:23:31;15.40;;;10.40;;
39958;SDS011;25639;53.634;9.880;2023-06-19T08:25:56;17.50;;;10.40;;
39958;SDS011;25639;53.634;9.880;2023-06-19T08:28:22;14.13;;;10.70;;
39958;SDS011;25639;53.634;9.880;2023-06-19T08:30:48;13.75;;;10.18;;
39958;SDS011;25639;53.634;9.880;2023-06-19T08:33:13;16.25;;;9.98;;
39958;SDS011;25639;53.634;9.880;2023-06-19T08:35:39;18.95;;;10.60;;
39958;SDS011;25639;53.634;9.880;2023-06-19T08:38:04;14.02;;;10.70;;
39958;SDS011;25639;53.634;9.880;2023-06-19T08:40:29;14.48;;;10.05;;
39958;SDS011;25639;53.634;9.880;2023-06-19T08:42:55;13.93;;;10.45;;
39958;SDS011;25639;53.634;9.880;2023-06-19T08:45:21;15.05;;;11.02;;
39958;SDS011;25639;53.634;9.880;2023-06-19T08:47:47;11.90;;;9.82;;
39958;SDS011;25639;53.634;9.880;2023-06-19T08:50:14;18.38;;;10.27;;
39958;SDS011;25639;53.634;9.880;2023-06-19T08:52:40;13.70;;;9.88;;
39958;SDS011;25639;53.634;9.880;2023-06-19T08:55:06;23.95;;;10.57;;
39958;SDS011;25639;53.634;9.880;2023-06-19T08:57:38;14.90;;;10.20;;
39958;SDS011;25639;53.634;9.880;2023-06-19T09:00:04;15.60;;;10.55;;
39958;SDS011;25639;53.634;9.880;2023-06-19T09:02:42;14.35;;;10.25;;
39958;SDS011;25639;53.634;9.880;2023-06-19T09:07:38;15.63;;;9.77;;
39958;SDS011;25639;53.634;9.880;2023-06-19T09:10:16;19.73;;;10.77;;
39958;SDS011;25639;53.634;9.880;2023-06-19T09:12:43;12.43;;;9.88;;
39958;SDS011;25639;53.634;9.880;2023-06-19T09:15:13;14.52;;;9.98;;
39958;SDS011;25639;53.634;9.880;2023-06-19T09:17:39;18.25;;;10.57;;
39958;SDS011;25639;53.634;9.880;2023-06-19T09:20:05;13.20;;;9.52;;
39958;SDS011;25639;53.634;9.880;2023-06-19T09:22:31;13.18;;;9.27;;
39958;SDS011;25639;53.634;9.880;2023-06-19T09:25:01;18.42;;;9.90;;
39958;SDS011;25639;53.634;9.880;2023-06-19T09:27:31;10.90;;;8.98;;
39958;SDS011;25639;53.634;9.880;2023-06-19T09:29:58;14.82;;;10.13;;
39958;SDS011;25639;53.634;9.880;2023-06-19T09:32:24;13.15;;;10.25;;
39958;SDS011;25639;53.634;9.880;2023-06-19T09:34:52;14.55;;;9.75;;
39958;SDS011;25639;53.634;9.880;2023-06-19T09:37:22;18.58;;;9.60;;
39958;SDS011;25639;53.634;9.880;2023-06-19T09:39:52;19.98;;;9.27;;
39958;SDS011;25639;53.634;9.880;2023-06-19T09:42:19;13.85;;;9.18;;
39958;SDS011;25639;53.634;9.880;2023-06-19T09:44:51;15.80;;;9.50;;
39958;SDS011;25639;53.634;9.880;2023-06-19T09:47:23;12.43;;;9.52;;
39958;SDS011;25639;53.634;9.880;2023-06-19T09:49:54;15.32;;;8.57;;
39958;SDS011;25639;53.634;9.880;2023-06-19T09:52:20;11.93;;;8.48;;
39958;SDS011;25639;53.634;9.880;2023-06-19T09:54:47;12.07;;;9.57;;
39958;SDS011;25639;53.634;9.880;2023-06-19T09:57:15;14.90;;;9.70;;
39958;SDS011;25639;53.634;9.880;2023-06-19T09:59:40;15.27;;;9.93;;
39958;SDS011;25639;53.634;9.880;2023-06-19T10:02:08;12.40;;;9.48;;
39958;SDS011;25639;53.634;9.880;2023-06-19T10:04:42;15.30;;;9.60;;
39958;SDS011;25639;53.634;9.880;2023-06-19T10:07:33;14.82;;;10.07;;
39958;SDS011;25639;53.634;9.880;2023-06-19T10:10:07;14.13;;;9.43;;
39958;SDS011;25639;53.634;9.880;2023-06-19T10:15:09;15.93;;;9.80;;
39958;SDS011;25639;53.634;9.880;2023-06-19T10:17:35;14.05;;;9.20;;
39958;SDS011;25639;53.634;9.880;2023-06-19T10:20:00;11.45;;;9.00;;
39958;SDS011;25639;53.634;9.880;2023-06-19T10:22:30;16.25;;;10.35;;
39958;SDS011;25639;53.634;9.880;2023-06-19T10:24:56;16.27;;;10.63;;
39958;SDS011;25639;53.634;9.880;2023-06-19T10:27:21;15.27;;;10.75;;
39958;SDS011;25639;53.634;9.880;2023-06-19T10:29:51;13.02;;;10.85;;
39958;SDS011;25639;53.634;9.880;2023-06-19T10:32:22;17.30;;;11.40;;
39958;SDS011;25639;53.634;9.880;2023-06-19T10:34:48;17.17;;;11.60;;
39958;SDS011;25639;53.634;9.880;2023-06-19T10:37:16;13.23;;;10.93;;
39958;SDS011;25639;53.634;9.880;2023-06-19T10:39:42;13.80;;;11.30;;
39958;SDS011;25639;53.634;9.880;2023-06-19T10:42:07;14.32;;;10.85;;
39958;SDS011;25639;53.634;9.880;2023-06-19T10:44:33;13.10;;;10.38;;
39958;SDS011;25639;53.634;9.880;2023-06-19T10:47:00;13.43;;;11.18;;
39958;SDS011;25639;53.634;9.880;2023-06-19T10:49:26;16.08;;;10.15;;
39958;SDS011;25639;53.634;9.880;2023-06-19T10:51:52;13.32;;;10.65;;
39958;SDS011;25639;53.634;9.880;2023-06-19T10:54:22;17.35;;;10.20;;
39958;SDS011;25639;53.634;9.880;2023-06-19T10:56:47;17.80;;;11.30;;
39958;SDS011;25639;53.634;9.880;2023-06-19T10:59:13;15.27;;;11.02;;
39958;SDS011;25639;53.634;9.880;2023-06-19T11:01:39;13.02;;;10.07;;
39958;SDS011;25639;53.634;9.880;2023-06-19T11:04:06;13.55;;;10.23;;
39958;SDS011;25639;53.634;9.880;2023-06-19T11:06:36;16.50;;;11.10;;
39958;SDS011;25639;53.634;9.880;2023-06-19T11:09:03;11.68;;;10.15;;
39958;SDS011;25639;53.634;9.880;2023-06-19T11:11:40;14.43;;;10.13;;
39958;SDS011;25639;53.634;9.880;2023-06-19T11:14:07;14.23;;;9.77;;
39958;SDS011;25639;53.634;9.880;2023-06-19T11:16:33;10.50;;;9.20;;
39958;SDS011;25639;53.634;9.880;2023-06-19T11:19:00;9.77;;;7.85;;
39958;SDS011;25639;53.634;9.880;2023-06-19T11:21:36;8.40;;;7.50;;
39958;SDS011;25639;53.634;9.880;2023-06-19T11:24:03;12.00;;;7.25;;
39958;SDS011;25639;53.634;9.880;2023-06-19T11:26:34;7.80;;;7.00;;
39958;SDS011;25639;53.634;9.880;2023-06-19T11:29:00;8.27;;;6.55;;
39958;SDS011;25639;53.634;9.880;2023-06-19T11:31:27;9.57;;;6.38;;
39958;SDS011;25639;53.634;9.880;2023-06-19T11:33:59;11.18;;;6.22;;
39958;SDS011;25639;53.634;9.880;2023-06-19T11:36:26;7.25;;;6.55;;
39958;SDS011;25639;53.634;9.880;2023-06-19T11:38:52;8.95;;;6.47;;
39958;SDS011;25639;53.634;9.880;2023-06-19T11:41:24;8.07;;;6.13;;
39958;SDS011;25639;53.634;9.880;2023-06-19T11:43:57;7.75;;;6.88;;
39958;SDS011;25639;53.634;9.880;2023-06-19T11:46:27;8.23;;;6.78;;
39958;SDS011;25639;53.634;9.880;2023-06-19T11:48:53;8.68;;;6.72;;
39958;SDS011;25639;53.634;9.880;2023-06-19T11:51:19;7.60;;;6.30;;
39958;SDS011;25639;53.634;9.880;2023-06-19T11:53:44;12.07;;;7.03;;
39958;SDS011;25639;53.634;9.880;2023-06-19T11:56:09;10.57;;;6.37;;
39958;SDS011;25639;53.634;9.880;2023-06-19T11:58:34;9.02;;;6.90;;
39958;SDS011;25639;53.634;9.880;2023-06-19T12:01:00;7.90;;;6.30;;
39958;SDS011;25639;53.634;9.880;2023-06-19T12:03:25;8.97;;;6.87;;
39958;SDS011;25639;53.634;9.880;2023-06-19T12:05:50;7.37;;;6.60;;
39958;SDS011;25639;53.634;9.880;2023-06-19T12:08:15;8.77;;;6.43;;
39958;SDS011;25639;53.634;9.880;2023-06-19T12:10:41;7.23;;;6.00;;
39958;SDS011;25639;53.634;9.880;2023-06-19T12:13:06;8.32;;;5.95;;
39958;SDS011;25639;53.634;9.880;2023-06-19T12:15:32;6.45;;;5.85;;
39958;SDS011;25639;53.634;9.880;2023-06-19T12:17:57;10.03;;;5.80;;
39958;SDS011;25639;53.634;9.880;2023-06-19T12:20:23;7.68;;;6.38;;
39958;SDS011;25639;53.634;9.880;2023-06-19T12:22:49;8.68;;;7.22;;
39958;SDS011;25639;53.634;9.880;2023-06-19T12:25:14;8.45;;;6.50;;
39958;SDS011;25639;53.634;9.880;2023-06-19T12:27:40;8.10;;;6.30;;
39958;SDS011;25639;53.634;9.880;2023-06-19T12:30:06;9.65;;;6.35;;
39958;SDS011;25639;53.634;9.880;2023-06-19T12:32:32;8.98;;;6.63;;
39958;SDS011;25639;53.634;9.880;2023-06-19T12:34:58;8.45;;;6.20;;
39958;SDS011;25639;53.634;9.880;2023-06-19T12:37:23;13.45;;;6.65;;
39958;SDS011;25639;53.634;9.880;2023-06-19T12:39:49;11.73;;;6.40;;
39958;SDS011;25639;53.634;9.880;2023-06-19T12:42:15;10.45;;;5.85;;
39958;SDS011;25639;53.634;9.880;2023-06-19T12:44:40;12.55;;;6.20;;
39958;SDS011;25639;53.634;9.880;2023-06-19T12:47:06;9.88;;;5.75;;
39958;SDS011;25639;53.634;9.880;2023-06-19T12:49:32;8.82;;;5.88;;
39958;SDS011;25639;53.634;9.880;2023-06-19T12:51:57;9.60;;;5.88;;
39958;SDS011;25639;53.634;9.880;2023-06-19T12:54:23;10.32;;;6.35;;
39958;SDS011;25639;53.634;9.880;2023-06-19T12:56:48;7.28;;;6.25;;
39958;SDS011;25639;53.634;9.880;2023-06-19T12:59:14;9.63;;;6.38;;
39958;SDS011;25639;53.634;9.880;2023-06-19T13:01:40;10.38;;;6.65;;
39958;SDS011;25639;53.634;9.880;2023-06-19T13:04:06;12.55;;;6.75;;
39958;SDS011;25639;53.634;9.880;2023-06-19T13:06:32;10.75;;;6.63;;
39958;SDS011;25639;53.634;9.880;2023-06-19T13:08:57;7.25;;;6.50;;
39958;SDS011;25639;53.634;9.880;2023-06-19T13:11:23;8.48;;;6.43;;
39958;SDS011;25639;53.634;9.880;2023-06-19T13:13:48;9.80;;;6.03;;
39958;SDS011;25639;53.634;9.880;2023-06-19T13:16:13;7.03;;;5.70;;
39958;SDS011;25639;53.634;9.880;2023-06-19T13:18:40;7.00;;;5.85;;
39958;SDS011;25639;53.634;9.880;2023-06-19T13:21:06;8.75;;;5.35;;
39958;SDS011;25639;53.634;9.880;2023-06-19T13:23:31;8.03;;;5.20;;
39958;SDS011;25639;53.634;9.880;2023-06-19T13:25:57;10.80;;;5.90;;
39958;SDS011;25639;53.634;9.880;2023-06-19T13:28:22;8.13;;;5.90;;
39958;SDS011;25639;53.634;9.880;2023-06-19T13:30:47;12.80;;;5.22;;
39958;SDS011;25639;53.634;9.880;2023-06-19T13:33:14;6.97;;;5.07;;
39958;SDS011;25639;53.634;9.880;2023-06-19T13:35:39;13.77;;;5.22;;
39958;SDS011;25639;53.634;9.880;2023-06-19T13:38:05;9.23;;;5.35;;
39958;SDS011;25639;53.634;9.880;2023-06-19T13:40:31;6.05;;;4.90;;
39958;SDS011;25639;53.634;9.880;2023-06-19T13:42:56;11.37;;;4.80;;
39958;SDS011;25639;53.634;9.880;2023-06-19T13:45:22;8.82;;;5.00;;
39958;SDS011;25639;53.634;9.880;2023-06-19T13:47:47;8.70;;;4.40;;
39958;SDS011;25639;53.634;9.880;2023-06-19T13:50:12;5.80;;;4.80;;
39958;SDS011;25639;53.634;9.880;2023-06-19T13:52:43;7.40;;;4.72;;
39958;SDS011;25639;53.634;9.880;2023-06-19T13:55:09;8.30;;;4.60;;
39958;SDS011;25639;53.634;9.880;2023-06-19T13:57:34;8.88;;;4.93;;
39958;SDS011;25639;53.634;9.880;2023-06-19T13:59:59;8.05;;;4.90;;
39958;SDS011;25639;53.634;9.880;2023-06-19T14:02:24;7.87;;;4.33;;
39958;SDS011;25639;53.634;9.880;2023-06-19T14:04:50;8.00;;;5.13;;
39958;SDS011;25639;53.634;9.880;2023-06-19T14:07:15;7.88;;;4.93;;
39958;SDS011;25639;53.634;9.880;2023-06-19T14:09:42;9.27;;;4.82;;
39958;SDS011;25639;53.634;9.880;2023-06-19T14:12:08;6.60;;;4.20;;
39958;SDS011;25639;53.634;9.880;2023-06-19T14:14:33;7.93;;;5.07;;
39958;SDS011;25639;53.634;9.880;2023-06-19T14:16:59;4.82;;;4.32;;
39958;SDS011;25639;53.634;9.880;2023-06-19T14:19:25;7.30;;;4.82;;
39958;SDS011;25639;53.634;9.880;2023-06-19T14:21:50;7.50;;;4.53;;
39958;SDS011;25639;53.634;9.880;2023-06-19T14:24:16;7.40;;;4.38;;
39958;SDS011;25639;53.634;9.880;2023-06-19T14:26:41;9.60;;;5.35;;
39958;SDS011;25639;53.634;9.880;2023-06-19T14:29:07;8.73;;;5.05;;
39958;SDS011;25639;53.634;9.880;2023-06-19T14:31:33;8.63;;;5.35;;
39958;SDS011;25639;53.634;9.880;2023-06-19T14:33:58;6.80;;;5.17;;
39958;SDS011;25639;53.634;9.880;2023-06-19T14:36:23;6.30;;;5.10;;
39958;SDS011;25639;53.634;9.880;2023-06-19T14:38:48;9.98;;;5.22;;